sensor_id;sensor_type;location;lat;lon;timestamp;temperature;humidity
11003;DHT22;5554;55.796;13.090;2022-07-06T00:01:45;13.30;99.90
11003;DHT22;5554;55.796;13.090;2022-07-06T00:04:12;13.30;99.90
11003;DHT22;5554;55.796;13.090;2022-07-06T00:06:40;13.30;99.90
11003;DHT22;5554;55.796;13.090;2022-07-06T00:09:06;13.30;99.90
11003;DHT22;5554;55.796;13.090;2022-07-06T00:11:33;13.30;99.90
11003;DHT22;5554;55.796;13.090;2022-07-06T00:14:02;13.20;99.90
11003;DHT22;5554;55.796;13.090;2022-07-06T00:16:29;13.20;99.90
11003;DHT22;5554;55.796;13.090;2022-07-06T00:18:57;13.20;99.90
11003;DHT22;5554;55.796;13.090;2022-07-06T00:21:24;13.20;99.90
11003;DHT22;5554;55.796;13.090;2022-07-06T00:23:50;13.10;99.90
11003;DHT22;5554;55.796;13.090;2022-07-06T00:26:18;13.10;99.90
11003;DHT22;5554;55.796;13.090;2022-07-06T00:28:45;13.10;99.90
11003;DHT22;5554;55.796;13.090;2022-07-06T00:31:13;13.10;99.90
11003;DHT22;5554;55.796;13.090;2022-07-06T00:33:40;13.10;99.90
11003;DHT22;5554;55.796;13.090;2022-07-06T00:36:07;13.10;99.90
11003;DHT22;5554;55.796;13.090;2022-07-06T00:38:34;13.10;99.90
11003;DHT22;5554;55.796;13.090;2022-07-06T00:41:01;13.00;99.90
11003;DHT22;5554;55.796;13.090;2022-07-06T00:43:28;13.00;99.90
11003;DHT22;5554;55.796;13.090;2022-07-06T00:45:55;13.10;99.90
11003;DHT22;5554;55.796;13.090;2022-07-06T00:48:23;13.10;99.90
11003;DHT22;5554;55.796;13.090;2022-07-06T00:50:50;13.10;99.90
11003;DHT22;5554;55.796;13.090;2022-07-06T00:53:17;13.10;99.90
11003;DHT22;5554;55.796;13.090;2022-07-06T00:55:43;13.10;99.90
11003;DHT22;5554;55.796;13.090;2022-07-06T00:58:10;13.00;99.90
11003;DHT22;5554;55.796;13.090;2022-07-06T01:00:37;13.00;99.90
11003;DHT22;5554;55.796;13.090;2022-07-06T01:03:10;13.00;99.90
11003;DHT22;5554;55.796;13.090;2022-07-06T01:05:38;13.00;99.90
11003;DHT22;5554;55.796;13.090;2022-07-06T01:08:05;13.00;99.90
11003;DHT22;5554;55.796;13.090;2022-07-06T01:10:32;13.00;99.90
11003;DHT22;5554;55.796;13.090;2022-07-06T01:12:59;13.00;99.90
11003;DHT22;5554;55.796;13.090;2022-07-06T01:15:26;13.00;99.90
11003;DHT22;5554;55.796;13.090;2022-07-06T01:17:53;13.00;99.90
11003;DHT22;5554;55.796;13.090;2022-07-06T01:20:23;13.00;99.90
11003;DHT22;5554;55.796;13.090;2022-07-06T01:22:51;13.00;99.90
11003;DHT22;5554;55.796;13.090;2022-07-06T01:25:19;13.00;99.90
11003;DHT22;5554;55.796;13.090;2022-07-06T01:27:47;13.00;99.90
11003;DHT22;5554;55.796;13.090;2022-07-06T01:30:16;13.00;99.90
11003;DHT22;5554;55.796;13.090;2022-07-06T01:32:43;13.00;99.90
11003;DHT22;5554;55.796;13.090;2022-07-06T01:35:11;13.10;99.90
11003;DHT22;5554;55.796;13.090;2022-07-06T01:37:41;13.20;99.90
11003;DHT22;5554;55.796;13.090;2022-07-06T01:40:10;13.20;99.90
11003;DHT22;5554;55.796;13.090;2022-07-06T01:42:37;13.30;99.90
11003;DHT22;5554;55.796;13.090;2022-07-06T01:45:06;13.30;99.90
11003;DHT22;5554;55.796;13.090;2022-07-06T01:47:33;13.40;99.90
11003;DHT22;5554;55.796;13.090;2022-07-06T01:50:00;13.40;99.90
11003;DHT22;5554;55.796;13.090;2022-07-06T01:52:27;13.40;99.90
11003;DHT22;5554;55.796;13.090;2022-07-06T01:54:56;13.40;99.90
11003;DHT22;5554;55.796;13.090;2022-07-06T01:57:23;13.40;99.90
11003;DHT22;5554;55.796;13.090;2022-07-06T01:59:50;13.40;99.90
11003;DHT22;5554;55.796;13.090;2022-07-06T02:02:17;13.40;99.90
11003;DHT22;5554;55.796;13.090;2022-07-06T02:04:44;13.40;99.90
11003;DHT22;5554;55.796;13.090;2022-07-06T02:07:11;13.40;99.90
11003;DHT22;5554;55.796;13.090;2022-07-06T02:09:38;13.40;99.90
11003;DHT22;5554;55.796;13.090;2022-07-06T02:12:06;13.40;99.90
11003;DHT22;5554;55.796;13.090;2022-07-06T02:14:33;13.40;99.90
11003;DHT22;5554;55.796;13.090;2022-07-06T02:17:00;13.40;99.90
11003;DHT22;5554;55.796;13.090;2022-07-06T02:19:27;13.40;99.90
11003;DHT22;5554;55.796;13.090;2022-07-06T02:21:54;13.50;99.90
11003;DHT22;5554;55.796;13.090;2022-07-06T02:24:21;13.60;99.90
11003;DHT22;5554;55.796;13.090;2022-07-06T02:26:48;13.60;99.90
11003;DHT22;5554;55.796;13.090;2022-07-06T02:29:16;13.60;99.90
11003;DHT22;5554;55.796;13.090;2022-07-06T02:31:43;13.70;99.90
11003;DHT22;5554;55.796;13.090;2022-07-06T02:34:09;13.70;99.90
11003;DHT22;5554;55.796;13.090;2022-07-06T02:36:36;13.80;99.90
11003;DHT22;5554;55.796;13.090;2022-07-06T02:39:03;13.80;99.90
11003;DHT22;5554;55.796;13.090;2022-07-06T02:41:30;13.80;99.90
11003;DHT22;5554;55.796;13.090;2022-07-06T02:43:58;13.80;99.90
11003;DHT22;5554;55.796;13.090;2022-07-06T02:46:26;13.80;99.90
11003;DHT22;5554;55.796;13.090;2022-07-06T02:48:53;13.80;99.90
11003;DHT22;5554;55.796;13.090;2022-07-06T02:51:20;13.80;99.90
11003;DHT22;5554;55.796;13.090;2022-07-06T02:53:49;13.80;99.90
11003;DHT22;5554;55.796;13.090;2022-07-06T02:56:15;13.90;99.90
11003;DHT22;5554;55.796;13.090;2022-07-06T02:58:42;13.90;99.90
11003;DHT22;5554;55.796;13.090;2022-07-06T03:01:09;13.90;99.90
11003;DHT22;5554;55.796;13.090;2022-07-06T03:03:37;13.90;99.90
11003;DHT22;5554;55.796;13.090;2022-07-06T03:06:05;13.80;99.90
11003;DHT22;5554;55.796;13.090;2022-07-06T03:08:32;13.80;99.90
11003;DHT22;5554;55.796;13.090;2022-07-06T03:11:00;13.80;99.90
11003;DHT22;5554;55.796;13.090;2022-07-06T03:13:27;13.80;99.90
11003;DHT22;5554;55.796;13.090;2022-07-06T03:15:54;13.80;99.90
11003;DHT22;5554;55.796;13.090;2022-07-06T03:18:21;13.90;99.90
11003;DHT22;5554;55.796;13.090;2022-07-06T03:20:49;14.00;99.90
11003;DHT22;5554;55.796;13.090;2022-07-06T03:23:16;14.10;99.90
11003;DHT22;5554;55.796;13.090;2022-07-06T03:25:43;14.10;99.90
11003;DHT22;5554;55.796;13.090;2022-07-06T03:28:09;14.10;99.90
11003;DHT22;5554;55.796;13.090;2022-07-06T03:30:36;14.10;99.90
11003;DHT22;5554;55.796;13.090;2022-07-06T03:33:03;14.00;99.90
11003;DHT22;5554;55.796;13.090;2022-07-06T03:35:30;14.00;99.90
11003;DHT22;5554;55.796;13.090;2022-07-06T03:37:58;14.00;99.90
11003;DHT22;5554;55.796;13.090;2022-07-06T03:40:25;14.00;99.90
11003;DHT22;5554;55.796;13.090;2022-07-06T03:42:52;14.10;99.90
11003;DHT22;5554;55.796;13.090;2022-07-06T03:45:19;14.10;99.90
11003;DHT22;5554;55.796;13.090;2022-07-06T03:47:46;14.10;99.90
11003;DHT22;5554;55.796;13.090;2022-07-06T03:50:13;14.10;99.90
11003;DHT22;5554;55.796;13.090;2022-07-06T03:52:39;14.10;99.90
11003;DHT22;5554;55.796;13.090;2022-07-06T03:55:10;14.20;99.90
11003;DHT22;5554;55.796;13.090;2022-07-06T03:57:37;14.30;99.90
11003;DHT22;5554;55.796;13.090;2022-07-06T04:00:07;14.40;99.90
11003;DHT22;5554;55.796;13.090;2022-07-06T04:02:34;14.50;99.90
11003;DHT22;5554;55.796;13.090;2022-07-06T04:05:01;14.50;99.90
11003;DHT22;5554;55.796;13.090;2022-07-06T04:07:28;14.50;99.90
11003;DHT22;5554;55.796;13.090;2022-07-06T04:09:55;14.60;99.90
11003;DHT22;5554;55.796;13.090;2022-07-06T04:12:23;14.40;99.90
11003;DHT22;5554;55.796;13.090;2022-07-06T04:14:50;14.30;99.90
11003;DHT22;5554;55.796;13.090;2022-07-06T04:17:17;14.20;99.90
11003;DHT22;5554;55.796;13.090;2022-07-06T04:20:01;14.20;99.90
11003;DHT22;5554;55.796;13.090;2022-07-06T04:22:28;14.20;99.90
11003;DHT22;5554;55.796;13.090;2022-07-06T04:24:55;14.20;99.90
11003;DHT22;5554;55.796;13.090;2022-07-06T04:27:23;14.20;99.90
11003;DHT22;5554;55.796;13.090;2022-07-06T04:29:50;14.30;99.90
11003;DHT22;5554;55.796;13.090;2022-07-06T04:32:17;14.30;99.90
11003;DHT22;5554;55.796;13.090;2022-07-06T04:34:44;14.30;99.90
11003;DHT22;5554;55.796;13.090;2022-07-06T04:37:11;14.30;99.90
11003;DHT22;5554;55.796;13.090;2022-07-06T04:39:37;14.40;99.90
11003;DHT22;5554;55.796;13.090;2022-07-06T04:42:04;14.70;99.90
11003;DHT22;5554;55.796;13.090;2022-07-06T04:44:42;15.50;99.90
11003;DHT22;5554;55.796;13.090;2022-07-06T04:49:48;16.70;99.90
11003;DHT22;5554;55.796;13.090;2022-07-06T04:52:16;17.30;99.90
11003;DHT22;5554;55.796;13.090;2022-07-06T04:54:43;17.60;99.90
11003;DHT22;5554;55.796;13.090;2022-07-06T04:57:10;17.30;99.90
11003;DHT22;5554;55.796;13.090;2022-07-06T04:59:56;17.50;99.90
11003;DHT22;5554;55.796;13.090;2022-07-06T05:02:23;17.20;99.90
11003;DHT22;5554;55.796;13.090;2022-07-06T05:04:50;17.50;99.90
11003;DHT22;5554;55.796;13.090;2022-07-06T05:07:17;18.00;99.90
11003;DHT22;5554;55.796;13.090;2022-07-06T05:09:45;17.60;99.90
11003;DHT22;5554;55.796;13.090;2022-07-06T05:12:11;17.60;99.90
11003;DHT22;5554;55.796;13.090;2022-07-06T05:14:38;17.30;99.90
11003;DHT22;5554;55.796;13.090;2022-07-06T05:17:09;17.50;99.90
11003;DHT22;5554;55.796;13.090;2022-07-06T05:19:40;17.70;99.90
11003;DHT22;5554;55.796;13.090;2022-07-06T05:22:07;17.60;99.90
11003;DHT22;5554;55.796;13.090;2022-07-06T05:24:34;17.30;99.90
11003;DHT22;5554;55.796;13.090;2022-07-06T05:27:01;17.20;99.90
11003;DHT22;5554;55.796;13.090;2022-07-06T05:29:34;17.90;99.90
11003;DHT22;5554;55.796;13.090;2022-07-06T05:32:16;17.20;99.90
11003;DHT22;5554;55.796;13.090;2022-07-06T05:34:43;16.40;99.90
11003;DHT22;5554;55.796;13.090;2022-07-06T05:37:10;16.20;99.90
11003;DHT22;5554;55.796;13.090;2022-07-06T05:39:37;15.60;99.90
11003;DHT22;5554;55.796;13.090;2022-07-06T05:42:04;15.60;99.90
11003;DHT22;5554;55.796;13.090;2022-07-06T05:44:31;15.60;99.90
11003;DHT22;5554;55.796;13.090;2022-07-06T05:46:58;15.70;99.90
11003;DHT22;5554;55.796;13.090;2022-07-06T05:49:40;15.90;99.90
11003;DHT22;5554;55.796;13.090;2022-07-06T05:52:24;16.00;99.90
11003;DHT22;5554;55.796;13.090;2022-07-06T05:54:51;15.80;99.90
11003;DHT22;5554;55.796;13.090;2022-07-06T05:57:18;15.90;99.90
11003;DHT22;5554;55.796;13.090;2022-07-06T05:59:45;16.00;99.90
11003;DHT22;5554;55.796;13.090;2022-07-06T06:02:12;15.90;99.90
11003;DHT22;5554;55.796;13.090;2022-07-06T06:04:40;15.90;99.90
11003;DHT22;5554;55.796;13.090;2022-07-06T06:07:07;15.80;99.90
11003;DHT22;5554;55.796;13.090;2022-07-06T06:09:34;15.90;99.90
11003;DHT22;5554;55.796;13.090;2022-07-06T06:12:01;16.00;99.90
11003;DHT22;5554;55.796;13.090;2022-07-06T06:14:27;16.10;99.90
11003;DHT22;5554;55.796;13.090;2022-07-06T06:16:55;16.30;99.90
11003;DHT22;5554;55.796;13.090;2022-07-06T06:19:22;16.00;99.90
11003;DHT22;5554;55.796;13.090;2022-07-06T06:21:50;15.80;1.00
11003;DHT22;5554;55.796;13.090;2022-07-06T06:24:17;15.90;1.00
11003;DHT22;5554;55.796;13.090;2022-07-06T06:26:44;16.00;1.00
11003;DHT22;5554;55.796;13.090;2022-07-06T06:29:11;16.00;1.00
11003;DHT22;5554;55.796;13.090;2022-07-06T06:31:38;16.20;1.00
11003;DHT22;5554;55.796;13.090;2022-07-06T06:34:05;15.90;99.90
11003;DHT22;5554;55.796;13.090;2022-07-06T06:36:32;15.70;99.90
11003;DHT22;5554;55.796;13.090;2022-07-06T06:39:00;15.60;1.00
11003;DHT22;5554;55.796;13.090;2022-07-06T06:41:27;15.60;99.90
11003;DHT22;5554;55.796;13.090;2022-07-06T06:43:54;15.80;99.90
11003;DHT22;5554;55.796;13.090;2022-07-06T06:46:21;16.40;99.90
11003;DHT22;5554;55.796;13.090;2022-07-06T06:48:48;16.60;99.90
11003;DHT22;5554;55.796;13.090;2022-07-06T06:51:15;16.30;50.90
11003;DHT22;5554;55.796;13.090;2022-07-06T06:53:42;16.00;1.00
11003;DHT22;5554;55.796;13.090;2022-07-06T06:56:10;15.60;99.90
11003;DHT22;5554;55.796;13.090;2022-07-06T06:58:37;15.30;93.80
11003;DHT22;5554;55.796;13.090;2022-07-06T07:01:04;15.30;1.00
11003;DHT22;5554;55.796;13.090;2022-07-06T07:03:31;15.60;1.00
11003;DHT22;5554;55.796;13.090;2022-07-06T07:05:58;15.80;99.90
11003;DHT22;5554;55.796;13.090;2022-07-06T07:08:25;15.90;99.90
11003;DHT22;5554;55.796;13.090;2022-07-06T07:10:51;16.00;1.00
11003;DHT22;5554;55.796;13.090;2022-07-06T07:13:20;16.20;99.90
11003;DHT22;5554;55.796;13.090;2022-07-06T07:15:46;16.20;99.90
11003;DHT22;5554;55.796;13.090;2022-07-06T07:18:13;16.30;1.00
11003;DHT22;5554;55.796;13.090;2022-07-06T07:20:40;16.50;1.00
11003;DHT22;5554;55.796;13.090;2022-07-06T07:23:07;16.30;1.00
11003;DHT22;5554;55.796;13.090;2022-07-06T07:25:34;16.50;1.00
11003;DHT22;5554;55.796;13.090;2022-07-06T07:28:04;16.50;99.90
11003;DHT22;5554;55.796;13.090;2022-07-06T07:30:32;16.30;1.00
11003;DHT22;5554;55.796;13.090;2022-07-06T07:33:00;16.30;1.00
11003;DHT22;5554;55.796;13.090;2022-07-06T07:35:28;16.70;99.90
11003;DHT22;5554;55.796;13.090;2022-07-06T07:37:55;16.50;1.00
11003;DHT22;5554;55.796;13.090;2022-07-06T07:40:23;16.00;99.90
11003;DHT22;5554;55.796;13.090;2022-07-06T07:42:50;15.90;1.00
11003;DHT22;5554;55.796;13.090;2022-07-06T07:45:17;16.00;1.00
11003;DHT22;5554;55.796;13.090;2022-07-06T07:47:45;15.80;99.90
11003;DHT22;5554;55.796;13.090;2022-07-06T07:50:12;15.80;1.00
11003;DHT22;5554;55.796;13.090;2022-07-06T07:52:39;16.10;1.00
11003;DHT22;5554;55.796;13.090;2022-07-06T07:55:06;16.20;99.90
11003;DHT22;5554;55.796;13.090;2022-07-06T07:57:33;16.60;1.00
11003;DHT22;5554;55.796;13.090;2022-07-06T08:00:00;17.00;1.00
11003;DHT22;5554;55.796;13.090;2022-07-06T08:02:27;17.10;99.90
11003;DHT22;5554;55.796;13.090;2022-07-06T08:04:56;16.90;31.40
11003;DHT22;5554;55.796;13.090;2022-07-06T08:07:23;16.90;1.00
11003;DHT22;5554;55.796;13.090;2022-07-06T08:12:33;17.30;1.00
11003;DHT22;5554;55.796;13.090;2022-07-06T08:15:13;17.00;99.90
11003;DHT22;5554;55.796;13.090;2022-07-06T08:17:40;16.70;1.00
11003;DHT22;5554;55.796;13.090;2022-07-06T08:20:10;17.30;22.40
11003;DHT22;5554;55.796;13.090;2022-07-06T08:28:14;17.80;1.00
11003;DHT22;5554;55.796;13.090;2022-07-06T08:30:41;17.30;99.90
11003;DHT22;5554;55.796;13.090;2022-07-06T08:33:07;17.30;99.90
11003;DHT22;5554;55.796;13.090;2022-07-06T08:35:36;18.10;99.90
11003;DHT22;5554;55.796;13.090;2022-07-06T08:38:03;18.10;99.90
11003;DHT22;5554;55.796;13.090;2022-07-06T08:40:33;18.50;99.90
11003;DHT22;5554;55.796;13.090;2022-07-06T08:43:01;19.00;99.90
11003;DHT22;5554;55.796;13.090;2022-07-06T08:45:28;19.00;16.50
11003;DHT22;5554;55.796;13.090;2022-07-06T08:54:02;19.30;99.90
11003;DHT22;5554;55.796;13.090;2022-07-06T08:56:43;19.10;99.90
11003;DHT22;5554;55.796;13.090;2022-07-06T08:59:10;18.70;1.00
11003;DHT22;5554;55.796;13.090;2022-07-06T09:01:38;18.10;1.00
11003;DHT22;5554;55.796;13.090;2022-07-06T09:04:05;18.10;99.90
11003;DHT22;5554;55.796;13.090;2022-07-06T09:06:47;17.40;67.70
11003;DHT22;5554;55.796;13.090;2022-07-06T09:09:33;17.40;1.00
11003;DHT22;5554;55.796;13.090;2022-07-06T09:12:02;18.00;1.00
11003;DHT22;5554;55.796;13.090;2022-07-06T09:14:30;19.30;99.90
11003;DHT22;5554;55.796;13.090;2022-07-06T09:17:02;18.50;99.90
11003;DHT22;5554;55.796;13.090;2022-07-06T09:19:31;17.60;1.00
11003;DHT22;5554;55.796;13.090;2022-07-06T09:21:58;18.50;1.00
11003;DHT22;5554;55.796;13.090;2022-07-06T09:27:40;20.10;1.00
11003;DHT22;5554;55.796;13.090;2022-07-06T09:30:09;20.20;1.00
11003;DHT22;5554;55.796;13.090;2022-07-06T09:32:42;19.90;1.00
11003;DHT22;5554;55.796;13.090;2022-07-06T09:35:19;20.70;99.90
11003;DHT22;5554;55.796;13.090;2022-07-06T09:37:47;20.70;99.90
11003;DHT22;5554;55.796;13.090;2022-07-06T09:40:19;21.20;99.90
11003;DHT22;5554;55.796;13.090;2022-07-06T09:42:46;20.20;1.00
11003;DHT22;5554;55.796;13.090;2022-07-06T09:45:20;19.20;99.90
11003;DHT22;5554;55.796;13.090;2022-07-06T09:48:10;20.40;99.90
11003;DHT22;5554;55.796;13.090;2022-07-06T09:50:50;20.40;99.90
11003;DHT22;5554;55.796;13.090;2022-07-06T09:53:18;21.00;99.90
11003;DHT22;5554;55.796;13.090;2022-07-06T09:55:48;21.30;99.90
11003;DHT22;5554;55.796;13.090;2022-07-06T09:58:19;21.10;62.50
11003;DHT22;5554;55.796;13.090;2022-07-06T10:00:47;20.90;1.00
11003;DHT22;5554;55.796;13.090;2022-07-06T10:03:15;21.00;1.00
11003;DHT22;5554;55.796;13.090;2022-07-06T10:05:44;21.40;1.00
11003;DHT22;5554;55.796;13.090;2022-07-06T10:08:17;21.70;1.00
11003;DHT22;5554;55.796;13.090;2022-07-06T10:10:44;22.10;1.00
11003;DHT22;5554;55.796;13.090;2022-07-06T10:13:14;22.00;99.90
11003;DHT22;5554;55.796;13.090;2022-07-06T10:15:49;21.80;99.90
11003;DHT22;5554;55.796;13.090;2022-07-06T10:18:16;20.90;99.90
11003;DHT22;5554;55.796;13.090;2022-07-06T10:20:44;20.80;99.90
11003;DHT22;5554;55.796;13.090;2022-07-06T10:23:11;20.00;99.90
11003;DHT22;5554;55.796;13.090;2022-07-06T10:25:39;19.20;43.90
11003;DHT22;5554;55.796;13.090;2022-07-06T10:28:06;20.00;30.70
11003;DHT22;5554;55.796;13.090;2022-07-06T10:30:42;21.20;99.90
11003;DHT22;5554;55.796;13.090;2022-07-06T10:33:11;21.10;99.90
11003;DHT22;5554;55.796;13.090;2022-07-06T10:35:56;20.20;86.10
11003;DHT22;5554;55.796;13.090;2022-07-06T10:38:31;18.90;1.00
11003;DHT22;5554;55.796;13.090;2022-07-06T10:41:02;18.60;1.00
11003;DHT22;5554;55.796;13.090;2022-07-06T10:43:33;18.40;1.00
11003;DHT22;5554;55.796;13.090;2022-07-06T10:46:07;18.40;1.00
11003;DHT22;5554;55.796;13.090;2022-07-06T10:48:35;17.90;1.00
11003;DHT22;5554;55.796;13.090;2022-07-06T10:51:02;17.80;1.00
11003;DHT22;5554;55.796;13.090;2022-07-06T10:53:32;17.80;1.00
11003;DHT22;5554;55.796;13.090;2022-07-06T10:56:02;18.00;1.00
11003;DHT22;5554;55.796;13.090;2022-07-06T10:58:46;18.00;99.90
11003;DHT22;5554;55.796;13.090;2022-07-06T11:01:18;18.10;1.00
11003;DHT22;5554;55.796;13.090;2022-07-06T11:03:46;17.80;1.00
11003;DHT22;5554;55.796;13.090;2022-07-06T11:06:15;17.80;99.90
11003;DHT22;5554;55.796;13.090;2022-07-06T11:08:48;18.00;99.90
11003;DHT22;5554;55.796;13.090;2022-07-06T11:11:24;18.50;1.00
11003;DHT22;5554;55.796;13.090;2022-07-06T11:13:54;18.40;1.00
11003;DHT22;5554;55.796;13.090;2022-07-06T11:19:37;20.70;99.90
11003;DHT22;5554;55.796;13.090;2022-07-06T11:22:06;20.10;24.00
11003;DHT22;5554;55.796;13.090;2022-07-06T11:24:35;19.80;1.00
11003;DHT22;5554;55.796;13.090;2022-07-06T11:27:03;19.40;99.90
11003;DHT22;5554;55.796;13.090;2022-07-06T11:29:33;18.50;99.90
11003;DHT22;5554;55.796;13.090;2022-07-06T11:32:05;18.20;99.90
11003;DHT22;5554;55.796;13.090;2022-07-06T11:34:35;18.20;99.90
11003;DHT22;5554;55.796;13.090;2022-07-06T11:37:05;18.10;99.90
11003;DHT22;5554;55.796;13.090;2022-07-06T11:39:33;18.00;45.30
11003;DHT22;5554;55.796;13.090;2022-07-06T11:42:01;17.90;99.90
11003;DHT22;5554;55.796;13.090;2022-07-06T11:44:30;17.80;5.50
11003;DHT22;5554;55.796;13.090;2022-07-06T11:46:57;17.60;99.90
11003;DHT22;5554;55.796;13.090;2022-07-06T11:49:28;17.60;99.90
11003;DHT22;5554;55.796;13.090;2022-07-06T11:51:55;17.60;99.90
11003;DHT22;5554;55.796;13.090;2022-07-06T11:54:33;17.80;99.90
11003;DHT22;5554;55.796;13.090;2022-07-06T11:57:00;18.00;1.00
11003;DHT22;5554;55.796;13.090;2022-07-06T11:59:31;18.10;1.00
11003;DHT22;5554;55.796;13.090;2022-07-06T12:01:59;18.90;12.70
11003;DHT22;5554;55.796;13.090;2022-07-06T12:04:28;19.60;1.00
11003;DHT22;5554;55.796;13.090;2022-07-06T12:06:55;19.00;1.00
11003;DHT22;5554;55.796;13.090;2022-07-06T12:09:22;18.80;1.00
11003;DHT22;5554;55.796;13.090;2022-07-06T12:11:49;18.80;99.90
11003;DHT22;5554;55.796;13.090;2022-07-06T12:14:20;18.60;99.90
11003;DHT22;5554;55.796;13.090;2022-07-06T12:16:49;18.40;99.90
11003;DHT22;5554;55.796;13.090;2022-07-06T12:19:17;18.30;99.90
11003;DHT22;5554;55.796;13.090;2022-07-06T12:21:52;18.20;50.90
11003;DHT22;5554;55.796;13.090;2022-07-06T12:24:20;18.20;1.00
11003;DHT22;5554;55.796;13.090;2022-07-06T12:26:48;18.10;99.90
11003;DHT22;5554;55.796;13.090;2022-07-06T12:29:16;18.30;99.90
11003;DHT22;5554;55.796;13.090;2022-07-06T12:31:48;18.60;99.90
11003;DHT22;5554;55.796;13.090;2022-07-06T12:34:16;19.00;99.90
11003;DHT22;5554;55.796;13.090;2022-07-06T12:36:49;20.50;99.90
11003;DHT22;5554;55.796;13.090;2022-07-06T12:39:18;21.20;1.00
11003;DHT22;5554;55.796;13.090;2022-07-06T12:41:47;20.80;99.90
11003;DHT22;5554;55.796;13.090;2022-07-06T12:44:17;19.70;1.00
11003;DHT22;5554;55.796;13.090;2022-07-06T12:46:45;19.60;1.00
11003;DHT22;5554;55.796;13.090;2022-07-06T12:49:16;20.70;1.00
11003;DHT22;5554;55.796;13.090;2022-07-06T12:51:59;20.70;1.00
11003;DHT22;5554;55.796;13.090;2022-07-06T12:54:29;20.20;1.00
11003;DHT22;5554;55.796;13.090;2022-07-06T12:57:02;20.10;99.90
11003;DHT22;5554;55.796;13.090;2022-07-06T12:59:31;20.10;99.90
11003;DHT22;5554;55.796;13.090;2022-07-06T13:01:58;20.20;99.90
11003;DHT22;5554;55.796;13.090;2022-07-06T13:04:26;20.20;99.90
11003;DHT22;5554;55.796;13.090;2022-07-06T13:06:55;20.00;99.90
11003;DHT22;5554;55.796;13.090;2022-07-06T13:09:22;19.70;99.90
11003;DHT22;5554;55.796;13.090;2022-07-06T13:11:49;19.40;96.20
11003;DHT22;5554;55.796;13.090;2022-07-06T13:14:20;19.30;66.00
11003;DHT22;5554;55.796;13.090;2022-07-06T13:16:47;19.40;1.00
11003;DHT22;5554;55.796;13.090;2022-07-06T13:19:27;19.20;5.20
11003;DHT22;5554;55.796;13.090;2022-07-06T13:21:55;18.90;1.00
11003;DHT22;5554;55.796;13.090;2022-07-06T13:24:22;18.30;1.00
11003;DHT22;5554;55.796;13.090;2022-07-06T13:26:49;18.00;9.60
11003;DHT22;5554;55.796;13.090;2022-07-06T13:29:16;17.70;99.90
11003;DHT22;5554;55.796;13.090;2022-07-06T13:31:43;17.60;99.90
11003;DHT22;5554;55.796;13.090;2022-07-06T13:34:10;17.50;1.00
11003;DHT22;5554;55.796;13.090;2022-07-06T13:39:31;18.00;99.90
11003;DHT22;5554;55.796;13.090;2022-07-06T13:41:58;18.40;99.90
11003;DHT22;5554;55.796;13.090;2022-07-06T13:44:25;18.90;99.90
11003;DHT22;5554;55.796;13.090;2022-07-06T13:46:52;18.90;84.30
11003;DHT22;5554;55.796;13.090;2022-07-06T13:49:19;18.50;99.90
11003;DHT22;5554;55.796;13.090;2022-07-06T13:51:46;18.40;46.30
11003;DHT22;5554;55.796;13.090;2022-07-06T13:54:13;18.10;1.00
11003;DHT22;5554;55.796;13.090;2022-07-06T13:56:41;18.10;1.00
11003;DHT22;5554;55.796;13.090;2022-07-06T13:59:14;18.10;1.00
11003;DHT22;5554;55.796;13.090;2022-07-06T14:01:41;18.20;1.00
11003;DHT22;5554;55.796;13.090;2022-07-06T14:04:08;18.10;1.00
11003;DHT22;5554;55.796;13.090;2022-07-06T14:06:36;18.30;1.00
11003;DHT22;5554;55.796;13.090;2022-07-06T14:09:17;18.40;1.00
11003;DHT22;5554;55.796;13.090;2022-07-06T14:11:45;18.10;34.60
11003;DHT22;5554;55.796;13.090;2022-07-06T14:14:12;17.90;94.70
11003;DHT22;5554;55.796;13.090;2022-07-06T14:16:39;17.70;1.00
11003;DHT22;5554;55.796;13.090;2022-07-06T14:19:06;17.50;1.00
11003;DHT22;5554;55.796;13.090;2022-07-06T14:21:33;17.50;1.00
11003;DHT22;5554;55.796;13.090;2022-07-06T14:24:00;17.40;1.00
11003;DHT22;5554;55.796;13.090;2022-07-06T14:26:27;17.50;1.00
11003;DHT22;5554;55.796;13.090;2022-07-06T14:29:00;17.70;1.00
11003;DHT22;5554;55.796;13.090;2022-07-06T14:31:26;18.00;99.90
11003;DHT22;5554;55.796;13.090;2022-07-06T14:34:12;18.30;99.90
11003;DHT22;5554;55.796;13.090;2022-07-06T14:36:39;18.70;99.90
11003;DHT22;5554;55.796;13.090;2022-07-06T14:39:06;18.30;99.90
11003;DHT22;5554;55.796;13.090;2022-07-06T14:41:38;18.30;99.90
11003;DHT22;5554;55.796;13.090;2022-07-06T14:44:06;18.20;99.90
11003;DHT22;5554;55.796;13.090;2022-07-06T14:46:33;17.90;99.90
11003;DHT22;5554;55.796;13.090;2022-07-06T14:49:14;18.00;1.00
11003;DHT22;5554;55.796;13.090;2022-07-06T14:51:41;18.10;1.00
11003;DHT22;5554;55.796;13.090;2022-07-06T14:54:08;18.20;1.00
11003;DHT22;5554;55.796;13.090;2022-07-06T14:56:35;18.10;1.00
11003;DHT22;5554;55.796;13.090;2022-07-06T14:59:02;17.90;1.00
11003;DHT22;5554;55.796;13.090;2022-07-06T15:01:31;17.90;1.00
11003;DHT22;5554;55.796;13.090;2022-07-06T15:03:58;18.00;1.00
11003;DHT22;5554;55.796;13.090;2022-07-06T15:06:25;18.40;1.00
11003;DHT22;5554;55.796;13.090;2022-07-06T15:08:54;18.40;32.00
11003;DHT22;5554;55.796;13.090;2022-07-06T15:11:21;18.80;99.90
11003;DHT22;5554;55.796;13.090;2022-07-06T15:13:48;18.90;99.90
11003;DHT22;5554;55.796;13.090;2022-07-06T15:16:16;19.00;99.90
11003;DHT22;5554;55.796;13.090;2022-07-06T15:18:45;19.00;99.90
11003;DHT22;5554;55.796;13.090;2022-07-06T15:21:12;18.80;99.90
11003;DHT22;5554;55.796;13.090;2022-07-06T15:23:39;18.60;33.50
11003;DHT22;5554;55.796;13.090;2022-07-06T15:26:07;18.40;1.00
11003;DHT22;5554;55.796;13.090;2022-07-06T15:32:06;18.60;1.00
11003;DHT22;5554;55.796;13.090;2022-07-06T15:34:35;18.40;1.00
11003;DHT22;5554;55.796;13.090;2022-07-06T15:37:02;18.20;1.00
11003;DHT22;5554;55.796;13.090;2022-07-06T15:39:29;18.20;1.00
11003;DHT22;5554;55.796;13.090;2022-07-06T15:41:56;18.10;99.90
11003;DHT22;5554;55.796;13.090;2022-07-06T15:44:26;17.90;1.00
11003;DHT22;5554;55.796;13.090;2022-07-06T15:46:53;18.00;99.90
11003;DHT22;5554;55.796;13.090;2022-07-06T15:49:20;17.90;99.90
11003;DHT22;5554;55.796;13.090;2022-07-06T15:51:57;17.70;99.90
11003;DHT22;5554;55.796;13.090;2022-07-06T15:54:25;17.70;99.90
11003;DHT22;5554;55.796;13.090;2022-07-06T15:56:56;17.60;99.90
11003;DHT22;5554;55.796;13.090;2022-07-06T15:59:23;18.10;1.00
11003;DHT22;5554;55.796;13.090;2022-07-06T16:01:50;18.60;64.70
11003;DHT22;5554;55.796;13.090;2022-07-06T16:04:17;18.70;99.90
11003;DHT22;5554;55.796;13.090;2022-07-06T16:06:44;18.40;99.90
11003;DHT22;5554;55.796;13.090;2022-07-06T16:09:13;18.30;99.90
11003;DHT22;5554;55.796;13.090;2022-07-06T16:11:40;18.20;99.90
11003;DHT22;5554;55.796;13.090;2022-07-06T16:14:07;17.90;99.90